UUDD

Domodedovo International Airport

Moscow, Russian Federation
TAF UUDD 260458Z 2606/2712 18005MPS 9999 BKN012 TX14/2612Z TN06/2702Z TEMPO 2606/2609 3100 -SHRA SCT005 BKN012CB TEMPO 2609/2615 28011G17MPS 3100 -TSRA FEW007 BKN015CB BECMG 2615/2617 28010G17MPS BECMG 2622/2624 26007MPS SCT020
Issued Valid From Valid To
Apr-26 @ 04:58 UTC
(an hour ago)
Apr-26 @ 06:00 UTC
(in a few seconds)
Apr-27 @ 12:00 UTC
(-1 days ago)
Apr-26 @ 06:00 to Apr-26 @ 15:00
TAF UUDD 260458Z 2606/2712 18005MPS 9999 BKN012 TX14/2612Z TN06/2702Z
Wind Visibility Clouds
180° at 10 knots 10,000+ meters
  • Broken at 1,200' AGL
Temporary Apr-26 @ 06:00 to Apr-26 @ 09:00
TEMPO 2606/2609 3100 -SHRA SCT005 BKN012CB
Visibility Clouds Conditions
3,106 meters
  • Scattered at 500' AGL
  • Broken at 1,200' AGL
  • Light Rain
Temporary Apr-26 @ 09:00 to Apr-26 @ 15:00
TEMPO 2609/2615 28011G17MPS 3100 -TSRA FEW007 BKN015CB
Wind Visibility Clouds Conditions
280° at 21 knots
 Gusting to 33 knots
3,106 meters
  • Few at 700' AGL
  • Broken at 1,500' AGL
  • Light Thunderstorm
  • Light Rain
Becoming Apr-26 @ 15:00 to Apr-26 @ 22:00
BECMG 2615/2617 28010G17MPS
Wind Visibility Clouds
280° at 19 knots
 Gusting to 33 knots
10,000+ meters
  • Broken at 1,200' AGL
Becoming Apr-26 @ 22:00 to Apr-27 @ 12:00
BECMG 2622/2624 26007MPS SCT020
Wind Visibility Clouds
260° at 14 knots 10,000+ meters
  • Scattered at 2,000' AGL
TAF UUDD 260458Z 2606/2712 18005MPS 9999 BKN012 TX14/2612Z TN06/2702Z TEMPO 2606/2609 3100 -SHRA SCT005 BKN012CB TEMPO 2609/2615 28011G17MPS 3100 -TSRA FEW007 BKN015CB BECMG 2615/2617 28010G17MPS BECMG 2622/2624 26007MPS SCT020
Issued Apr-26 @ 04:58 UTC
(an hour ago)
Valid From Apr-26 @ 06:00 UTC
(in a few seconds)
Valid To Apr-27 @ 12:00 UTC
(-1 days ago)
Apr-26 @ 06:00 - Apr-26 @ 15:00
Wind Visibility
180° at 10 knots 10,000+ meters
Clouds
  • Broken at 1,200' AGL
Temporary Apr-26 @ 06:00 - Apr-26 @ 09:00
Clouds
  • Scattered at 500' AGL
  • Broken at 1,200' AGL
Conditions
  • Light Rain
Temporary Apr-26 @ 09:00 - Apr-26 @ 15:00
Wind Visibility
280° at 21 knots
 Gusting to 33 knots
3,106 meters
Clouds
  • Few at 700' AGL
  • Broken at 1,500' AGL
Conditions
  • Light Thunderstorm
  • Light Rain
Becoming Apr-26 @ 15:00 - Apr-26 @ 22:00
Wind Visibility
280° at 19 knots
 Gusting to 33 knots
10,000+ meters
Clouds
  • Broken at 1,200' AGL
Becoming Apr-26 @ 22:00 - Apr-27 @ 12:00
Wind Visibility
260° at 14 knots 10,000+ meters
Clouds
  • Scattered at 2,000' AGL